createdAt,value
2022-11-14T00:00:57.640Z,0
2022-11-14T00:03:57.583Z,0
2022-11-14T00:06:56.584Z,0
2022-11-14T00:09:58.109Z,0.6666666666666666
2022-11-14T00:12:57.367Z,0
2022-11-14T00:15:57.495Z,0.3333333333333333
2022-11-14T00:18:57.299Z,0.3333333333333333
2022-11-14T00:21:56.970Z,0
2022-11-14T00:24:57.049Z,0
2022-11-14T00:27:56.853Z,0
2022-11-14T00:30:57.349Z,0
2022-11-14T00:33:56.672Z,0
2022-11-14T00:36:56.959Z,0.6666666666666666
2022-11-14T00:39:57.738Z,0
2022-11-14T00:42:57.839Z,0
2022-11-14T00:45:57.869Z,0.6666666666666666
2022-11-14T00:48:56.977Z,0.6666666666666666
2022-11-14T00:51:56.920Z,0
2022-11-14T00:54:56.899Z,0
2022-11-14T00:57:57.366Z,1.3333333333333333
2022-11-14T01:00:57.629Z,0
2022-11-14T01:03:57.241Z,0
2022-11-14T01:06:57.286Z,0
2022-11-14T01:09:57.526Z,0
2022-11-14T01:12:57.580Z,0
2022-11-14T01:15:57.052Z,0
2022-11-14T01:18:57.541Z,0
2022-11-14T01:21:59.619Z,0.6666666666666666
2022-11-14T01:24:57.665Z,0
2022-11-14T01:27:57.367Z,0.3333333333333333
2022-11-14T01:30:57.631Z,0.3333333333333333
2022-11-14T01:33:56.983Z,0
2022-11-14T01:36:57.160Z,0.3333333333333333
2022-11-14T01:39:57.385Z,0
2022-11-14T01:42:57.840Z,0.3333333333333333
2022-11-14T01:45:57.954Z,0
2022-11-14T01:48:57.412Z,0.3333333333333333
2022-11-14T01:51:57.927Z,0
2022-11-14T01:54:57.148Z,0
2022-11-14T01:57:57.816Z,0.6666666666666666
2022-11-14T02:00:57.872Z,0
2022-11-14T02:03:57.639Z,0
2022-11-14T02:06:57.012Z,0
2022-11-14T02:09:56.993Z,0
2022-11-14T02:12:56.950Z,0
2022-11-14T02:15:56.942Z,0
2022-11-14T02:18:57.663Z,0.3333333333333333
2022-11-14T02:21:56.748Z,0
2022-11-14T02:24:57.520Z,0
2022-11-14T02:27:56.793Z,0
2022-11-14T02:30:57.280Z,1
2022-11-14T02:33:57.070Z,0
2022-11-14T02:36:57.551Z,0.3333333333333333
2022-11-14T02:39:57.335Z,0
2022-11-14T02:42:57.373Z,0
2022-11-14T02:46:00.291Z,0
2022-11-14T02:48:57.457Z,0
2022-11-14T02:51:57.528Z,0.6666666666666666
2022-11-14T02:54:57.231Z,0
2022-11-14T02:57:57.188Z,0
2022-11-14T03:01:19.641Z,0
2022-11-14T03:03:56.941Z,0.3333333333333333
2022-11-14T03:06:57.115Z,0
2022-11-14T03:09:57.455Z,0
2022-11-14T03:12:57.197Z,0.3333333333333333
2022-11-14T03:15:57.157Z,0
2022-11-14T03:18:57.229Z,0
2022-11-14T03:21:57.022Z,0.3333333333333333
2022-11-14T03:24:57.241Z,0
2022-11-14T03:27:57.388Z,0
2022-11-14T03:30:58.531Z,0.3333333333333333
2022-11-14T03:33:59.577Z,0
2022-11-14T03:36:57.172Z,0
2022-11-14T03:39:57.479Z,0
2022-11-14T03:42:56.848Z,0
2022-11-14T03:45:56.714Z,0
2022-11-14T03:48:56.768Z,0.6666666666666666
2022-11-14T03:51:57.351Z,0
2022-11-14T03:54:56.919Z,0
2022-11-14T03:57:57.463Z,0
2022-11-14T04:00:58.093Z,0.3333333333333333
2022-11-14T04:03:56.482Z,0.6666666666666666
2022-11-14T04:06:57.291Z,0
2022-11-14T04:09:57.003Z,0
2022-11-14T04:12:57.112Z,0
2022-11-14T04:15:57.079Z,0.6666666666666666
2022-11-14T04:18:57.134Z,0
2022-11-14T04:21:57.046Z,0
2022-11-14T04:24:57.592Z,0
2022-11-14T04:27:56.769Z,0
2022-11-14T04:30:57.873Z,0
2022-11-14T04:33:57.082Z,0
2022-11-14T04:36:56.909Z,0.3333333333333333
2022-11-14T04:39:57.247Z,0
2022-11-14T04:42:56.972Z,0
2022-11-14T04:45:57.568Z,0
2022-11-14T04:48:58.095Z,0
2022-11-14T04:51:57.492Z,0
2022-11-14T04:54:57.860Z,0.3333333333333333
2022-11-14T04:57:57.360Z,0
2022-11-14T05:00:58.412Z,0
2022-11-14T05:03:57.637Z,0
2022-11-14T05:06:57.972Z,0
2022-11-14T05:09:58.193Z,0
2022-11-14T05:12:57.063Z,0
2022-11-14T05:15:57.212Z,0
2022-11-14T05:18:57.748Z,0
2022-11-14T05:21:57.551Z,0
2022-11-14T05:24:57.995Z,0
2022-11-14T05:27:57.967Z,0
2022-11-14T05:30:58.573Z,0
2022-11-14T05:33:57.235Z,0
2022-11-14T05:36:57.517Z,0
2022-11-14T05:39:56.943Z,0
2022-11-14T05:42:57.407Z,0
2022-11-14T05:45:57.786Z,0
2022-11-14T05:48:57.658Z,0
2022-11-14T05:51:58.226Z,0
2022-11-14T05:54:57.580Z,0
2022-11-14T05:57:57.641Z,0
2022-11-14T06:00:57.535Z,0.3333333333333333
2022-11-14T06:03:57.497Z,0.6666666666666666
2022-11-14T06:06:57.180Z,1.3333333333333333
2022-11-14T06:09:57.715Z,2
2022-11-14T06:12:57.501Z,4.333333333333333
2022-11-14T06:15:57.440Z,6
2022-11-14T06:18:57.535Z,9.666666666666666
2022-11-14T06:21:57.932Z,15
2022-11-14T06:24:57.628Z,19.333333333333332
2022-11-14T06:27:57.322Z,24
2022-11-14T06:30:57.469Z,29
2022-11-14T06:33:57.355Z,36
2022-11-14T06:36:56.624Z,42
2022-11-14T06:39:57.217Z,51
2022-11-14T06:42:56.997Z,61
2022-11-14T06:45:57.628Z,68
2022-11-14T06:48:56.984Z,73
2022-11-14T06:51:57.910Z,84
2022-11-14T06:54:58.687Z,89.33333333333333
2022-11-14T06:57:56.870Z,97
2022-11-14T07:00:57.442Z,115.66666666666667
2022-11-14T07:03:57.586Z,141
2022-11-14T07:06:57.847Z,157.66666666666666
2022-11-14T07:09:58.276Z,198
2022-11-14T07:12:57.254Z,219
2022-11-14T07:15:57.247Z,237.66666666666666
2022-11-14T07:18:56.963Z,252.33333333333334
2022-11-14T07:21:56.760Z,241
2022-11-14T07:24:57.436Z,228.66666666666666
2022-11-14T07:27:57.327Z,231
2022-11-14T07:30:57.536Z,235
2022-11-14T07:33:56.964Z,244.33333333333334
2022-11-14T07:36:57.079Z,277
2022-11-14T07:39:57.183Z,260
2022-11-14T07:42:57.760Z,266.3333333333333
2022-11-14T07:45:57.070Z,253
2022-11-14T07:48:57.358Z,274.3333333333333
2022-11-14T07:51:57.522Z,274.6666666666667
2022-11-14T07:54:57.257Z,275
2022-11-14T07:57:57.175Z,300.3333333333333
2022-11-14T08:00:58.162Z,321.6666666666667
2022-11-14T08:03:57.705Z,354.6666666666667
2022-11-14T08:06:57.710Z,345
2022-11-14T08:09:58.128Z,343.6666666666667
2022-11-14T08:13:17.499Z,335
2022-11-14T08:15:58.067Z,329
2022-11-14T08:18:57.508Z,330.3333333333333
2022-11-14T08:21:57.453Z,342
2022-11-14T08:24:57.449Z,340.3333333333333
2022-11-14T08:27:57.639Z,334
2022-11-14T08:30:57.223Z,357
2022-11-14T08:33:57.144Z,313
2022-11-14T08:36:57.475Z,293
2022-11-14T08:39:58.285Z,288
2022-11-14T08:42:57.089Z,287.3333333333333
2022-11-14T08:46:01.082Z,289.6666666666667
2022-11-14T08:48:57.051Z,294
2022-11-14T08:51:57.189Z,294.3333333333333
2022-11-14T08:54:57.162Z,303
2022-11-14T08:57:57.043Z,314
2022-11-14T09:00:58.108Z,330
2022-11-14T09:03:59.656Z,351
2022-11-14T09:06:57.339Z,329
2022-11-14T09:09:57.756Z,332
2022-11-14T09:12:56.874Z,354.3333333333333
2022-11-14T09:15:57.177Z,405.3333333333333
2022-11-14T09:18:56.945Z,387.3333333333333
2022-11-14T09:21:57.418Z,344
2022-11-14T09:24:57.293Z,400.3333333333333
2022-11-14T09:27:57.439Z,395.3333333333333
2022-11-14T09:30:57.326Z,399.6666666666667
2022-11-14T09:33:57.609Z,397.6666666666667
2022-11-14T09:36:56.976Z,393
2022-11-14T09:39:57.550Z,443
2022-11-14T09:42:57.497Z,477
2022-11-14T09:45:57.026Z,478
2022-11-14T09:48:57.892Z,435.3333333333333
2022-11-14T09:51:56.947Z,459
2022-11-14T09:54:57.460Z,431
2022-11-14T09:57:58.025Z,428
2022-11-14T10:00:57.809Z,451.3333333333333
2022-11-14T10:03:57.602Z,487
2022-11-14T10:06:57.716Z,389
2022-11-14T10:09:57.075Z,493
2022-11-14T10:12:57.787Z,519.3333333333334
2022-11-14T10:15:57.300Z,549.6666666666666
2022-11-14T10:18:57.170Z,560.3333333333334
2022-11-14T10:21:57.139Z,520.3333333333334
2022-11-14T10:24:58.032Z,403.6666666666667
2022-11-14T10:28:02.339Z,449
2022-11-14T10:30:57.975Z,450
2022-11-14T10:33:57.443Z,445
2022-11-14T10:36:57.759Z,444.3333333333333
2022-11-14T10:40:29.795Z,452
2022-11-14T10:43:02.493Z,447.6666666666667
2022-11-14T10:45:57.798Z,460.6666666666667
2022-11-14T10:49:00.176Z,531.3333333333334
2022-11-14T10:51:57.749Z,578.6666666666666
2022-11-14T10:54:57.613Z,487.6666666666667
2022-11-14T10:57:57.296Z,670
2022-11-14T11:00:57.605Z,670
2022-11-14T11:04:16.722Z,548.3333333333334
2022-11-14T11:06:57.870Z,564.6666666666666
2022-11-14T11:09:57.331Z,610
2022-11-14T11:12:56.689Z,644.6666666666666
2022-11-14T11:15:57.806Z,631
2022-11-14T11:18:57.992Z,601.6666666666666
2022-11-14T11:21:57.384Z,536.6666666666666
2022-11-14T11:24:57.744Z,625.3333333333334
2022-11-14T11:27:57.687Z,619.6666666666666
2022-11-14T11:30:57.851Z,608.3333333333334
2022-11-14T11:33:57.005Z,590
2022-11-14T11:36:57.735Z,603
2022-11-14T11:39:57.420Z,690.3333333333334
2022-11-14T11:43:38.011Z,653
2022-11-14T11:45:57.730Z,602
2022-11-14T11:48:57.754Z,632.3333333333334
2022-11-14T11:51:57.369Z,665.6666666666666
2022-11-14T11:54:57.320Z,664
2022-11-14T11:57:56.945Z,463
2022-11-14T12:00:57.234Z,404
2022-11-14T12:03:57.423Z,457
2022-11-14T12:06:57.915Z,449.6666666666667
2022-11-14T12:10:10.324Z,411.6666666666667
2022-11-14T12:12:57.681Z,381
2022-11-14T12:15:58.106Z,386
2022-11-14T12:18:57.271Z,377.3333333333333
2022-11-14T12:21:58.798Z,380.3333333333333
2022-11-14T12:24:56.921Z,384.3333333333333
2022-11-14T12:27:57.430Z,374
2022-11-14T12:30:57.489Z,430
2022-11-14T12:33:57.265Z,505.6666666666667
2022-11-14T12:36:57.984Z,503.3333333333333
2022-11-14T12:39:58.067Z,541.3333333333334
2022-11-14T12:42:57.791Z,410.3333333333333
2022-11-14T12:45:57.774Z,422
2022-11-14T12:48:58.056Z,432.6666666666667
2022-11-14T12:51:57.887Z,420
2022-11-14T12:54:57.612Z,400
2022-11-14T12:57:56.946Z,445
2022-11-14T13:00:57.983Z,423
2022-11-14T13:03:57.361Z,376.6666666666667
2022-11-14T13:06:57.100Z,397.6666666666667
2022-11-14T13:09:57.028Z,369.6666666666667
2022-11-14T13:12:57.456Z,386
2022-11-14T13:15:56.920Z,429.6666666666667
2022-11-14T13:18:57.228Z,331.3333333333333
2022-11-14T13:21:57.584Z,262.6666666666667
2022-11-14T13:24:57.476Z,227.66666666666666
2022-11-14T13:28:07.068Z,205.66666666666666
2022-11-14T13:30:57.742Z,202.66666666666666
2022-11-14T13:33:57.690Z,223
2022-11-14T13:36:57.220Z,209.66666666666666
2022-11-14T13:39:57.275Z,226.33333333333334
2022-11-14T13:42:57.315Z,228.66666666666666
2022-11-14T13:45:57.864Z,233.33333333333334
2022-11-14T13:48:57.224Z,254.66666666666666
2022-11-14T13:51:57.435Z,258
2022-11-14T13:54:57.810Z,269
2022-11-14T13:57:57.875Z,240
2022-11-14T14:00:58.115Z,216.33333333333334
2022-11-14T14:03:57.830Z,197.66666666666666
2022-11-14T14:06:57.559Z,209
2022-11-14T14:09:58.181Z,228
2022-11-14T14:12:57.670Z,228.33333333333334
2022-11-14T14:15:58.085Z,230.33333333333334
2022-11-14T14:18:57.524Z,224
2022-11-14T14:21:57.723Z,220.66666666666666
2022-11-14T14:24:57.732Z,208
2022-11-14T14:27:58.199Z,207.66666666666666
2022-11-14T14:30:58.120Z,201.66666666666666
2022-11-14T14:33:58.308Z,200.66666666666666
2022-11-14T14:36:57.747Z,193
2022-11-14T14:39:57.559Z,197.33333333333334
2022-11-14T14:42:58.342Z,212
2022-11-14T14:45:57.268Z,206
2022-11-14T14:48:57.379Z,212.66666666666666
2022-11-14T14:51:58.864Z,201.33333333333334
2022-11-14T14:54:57.175Z,149
2022-11-14T14:57:57.853Z,118
2022-11-14T15:00:58.048Z,95
2022-11-14T15:03:57.094Z,86.66666666666667
2022-11-14T15:06:57.757Z,81
2022-11-14T15:09:57.931Z,75.33333333333333
2022-11-14T15:12:57.042Z,71.66666666666667
2022-11-14T15:15:57.156Z,71.66666666666667
2022-11-14T15:18:57.816Z,63.333333333333336
2022-11-14T15:21:57.662Z,51
2022-11-14T15:24:56.996Z,40.666666666666664
2022-11-14T15:27:56.768Z,37
2022-11-14T15:30:57.999Z,28.333333333333332
2022-11-14T15:33:57.988Z,22
2022-11-14T15:36:58.454Z,17
2022-11-14T15:39:57.582Z,12
2022-11-14T15:42:58.154Z,8.333333333333334
2022-11-14T15:45:57.821Z,6
2022-11-14T15:48:57.721Z,4
2022-11-14T15:51:57.339Z,3
2022-11-14T15:54:58.462Z,2
2022-11-14T15:58:26.032Z,1
2022-11-14T16:00:58.394Z,0
2022-11-14T16:03:57.807Z,0
2022-11-14T16:06:57.964Z,0
2022-11-14T16:09:57.521Z,0
2022-11-14T16:12:58.122Z,0
2022-11-14T16:15:57.561Z,0
2022-11-14T16:18:58.219Z,0.6666666666666666
2022-11-14T16:21:57.943Z,0.3333333333333333
2022-11-14T16:24:58.035Z,0
2022-11-14T16:27:57.051Z,0.3333333333333333
2022-11-14T16:30:57.447Z,0
2022-11-14T16:33:57.790Z,0
2022-11-14T16:36:58.046Z,0
2022-11-14T16:39:57.917Z,0
2022-11-14T16:42:57.729Z,0
2022-11-14T16:45:57.724Z,0
2022-11-14T16:48:57.739Z,0
2022-11-14T16:51:57.534Z,0
2022-11-14T16:54:57.967Z,0.3333333333333333
2022-11-14T16:57:57.513Z,0
2022-11-14T17:00:58.480Z,0
2022-11-14T17:03:57.070Z,0.3333333333333333
2022-11-14T17:06:57.170Z,0
2022-11-14T17:09:57.290Z,0.3333333333333333
2022-11-14T17:12:56.869Z,0
2022-11-14T17:15:57.760Z,0
2022-11-14T17:18:57.153Z,0
2022-11-14T17:21:57.778Z,0
2022-11-14T17:24:57.510Z,0
2022-11-14T17:27:57.664Z,0
2022-11-14T17:30:57.663Z,0
2022-11-14T17:33:57.074Z,0
2022-11-14T17:36:57.401Z,0
2022-11-14T17:39:57.613Z,0
2022-11-14T17:42:57.595Z,0
2022-11-14T17:45:57.189Z,0
2022-11-14T17:48:57.716Z,0
2022-11-14T17:51:57.505Z,0
2022-11-14T17:54:57.561Z,0
2022-11-14T17:57:56.913Z,0
2022-11-14T18:01:25.660Z,0
2022-11-14T18:04:01.629Z,0.3333333333333333
2022-11-14T18:06:57.800Z,0
2022-11-14T18:09:57.150Z,0
2022-11-14T18:12:56.884Z,0
2022-11-14T18:15:57.564Z,0
2022-11-14T18:18:57.720Z,0
2022-11-14T18:21:57.193Z,0
2022-11-14T18:24:57.187Z,0
2022-11-14T18:27:57.180Z,0.3333333333333333
2022-11-14T18:30:57.232Z,0
2022-11-14T18:33:57.036Z,0
2022-11-14T18:36:57.308Z,0.3333333333333333
2022-11-14T18:39:57.761Z,1
2022-11-14T18:42:57.042Z,0
2022-11-14T18:45:56.882Z,0
2022-11-14T18:48:57.860Z,0
2022-11-14T18:51:56.980Z,0
2022-11-14T18:54:56.859Z,0
2022-11-14T18:57:57.117Z,0
2022-11-14T19:00:58.141Z,0
2022-11-14T19:03:57.104Z,0
2022-11-14T19:06:57.914Z,0
2022-11-14T19:09:57.361Z,0
2022-11-14T19:12:57.480Z,0.6666666666666666
2022-11-14T19:15:58.172Z,0
2022-11-14T19:18:57.447Z,0
2022-11-14T19:21:57.728Z,0
2022-11-14T19:24:57.216Z,0
2022-11-14T19:27:57.543Z,0
2022-11-14T19:30:58.164Z,0.3333333333333333
2022-11-14T19:33:57.025Z,0
2022-11-14T19:37:00.426Z,0.3333333333333333
2022-11-14T19:39:57.253Z,0
2022-11-14T19:42:57.342Z,0
2022-11-14T19:45:57.966Z,0
2022-11-14T19:48:57.818Z,0
2022-11-14T19:51:57.967Z,0
2022-11-14T19:54:57.053Z,0.3333333333333333
2022-11-14T19:57:58.186Z,0
2022-11-14T20:00:57.728Z,0
2022-11-14T20:03:57.308Z,0.3333333333333333
2022-11-14T20:06:57.778Z,0.3333333333333333
2022-11-14T20:09:57.847Z,0.3333333333333333
2022-11-14T20:12:57.240Z,0.3333333333333333
2022-11-14T20:15:57.933Z,0.3333333333333333
2022-11-14T20:18:59.382Z,0.3333333333333333
2022-11-14T20:21:56.778Z,0
2022-11-14T20:24:57.526Z,0
2022-11-14T20:27:57.783Z,0
2022-11-14T20:30:57.554Z,0
2022-11-14T20:33:57.656Z,0.3333333333333333
2022-11-14T20:37:10.546Z,0
2022-11-14T20:39:57.872Z,0
2022-11-14T20:42:57.145Z,0
2022-11-14T20:45:57.622Z,0.6666666666666666
2022-11-14T20:48:57.742Z,0
2022-11-14T20:51:56.869Z,0.3333333333333333
2022-11-14T20:54:56.913Z,0
2022-11-14T20:57:57.361Z,0
2022-11-14T21:00:58.155Z,0.3333333333333333
2022-11-14T21:03:57.286Z,0
2022-11-14T21:06:57.506Z,0
2022-11-14T21:09:57.901Z,0
2022-11-14T21:12:57.336Z,0
2022-11-14T21:15:57.667Z,0.3333333333333333
2022-11-14T21:18:57.695Z,0.3333333333333333
2022-11-14T21:21:57.738Z,0
2022-11-14T21:24:57.623Z,0
2022-11-14T21:27:57.507Z,0
2022-11-14T21:30:57.283Z,0
2022-11-14T21:33:57.029Z,0
2022-11-14T21:36:57.377Z,0
2022-11-14T21:39:57.472Z,0
2022-11-14T21:42:57.620Z,0
2022-11-14T21:45:57.665Z,0
2022-11-14T21:48:57.180Z,0
2022-11-14T21:51:56.841Z,0
2022-11-14T21:54:57.285Z,0
2022-11-14T21:57:57.411Z,0
2022-11-14T22:00:57.979Z,0.6666666666666666
2022-11-14T22:03:57.568Z,0
2022-11-14T22:06:57.173Z,0
2022-11-14T22:09:57.846Z,0
2022-11-14T22:12:57.183Z,0
2022-11-14T22:15:58.182Z,0
2022-11-14T22:19:01.968Z,0
2022-11-14T22:21:57.864Z,0.3333333333333333
2022-11-14T22:24:57.831Z,0
2022-11-14T22:27:57.758Z,0
2022-11-14T22:30:58.052Z,0
2022-11-14T22:33:57.588Z,0
2022-11-14T22:36:57.665Z,0
2022-11-14T22:39:57.786Z,0
2022-11-14T22:42:57.318Z,0
2022-11-14T22:45:57.121Z,0
2022-11-14T22:48:56.836Z,0
2022-11-14T22:51:57.486Z,0
2022-11-14T22:54:57.412Z,0
2022-11-14T22:57:57.659Z,0
2022-11-14T23:00:57.502Z,0
2022-11-14T23:03:57.435Z,0
2022-11-14T23:06:58.176Z,0
2022-11-14T23:09:57.264Z,0
2022-11-14T23:12:57.065Z,0
2022-11-14T23:15:57.162Z,0
2022-11-14T23:18:57.218Z,0
2022-11-14T23:21:57.135Z,0
2022-11-14T23:24:57.111Z,0
2022-11-14T23:27:57.019Z,0
2022-11-14T23:30:57.697Z,0
2022-11-14T23:33:57.692Z,0
2022-11-14T23:36:57.911Z,0
2022-11-14T23:39:57.246Z,0
2022-11-14T23:42:57.053Z,0
2022-11-14T23:45:57.775Z,0
2022-11-14T23:48:57.173Z,0
2022-11-14T23:51:56.847Z,0
2022-11-14T23:54:57.093Z,0
2022-11-14T23:57:57.132Z,0
